Terminal Aerodrome Forecast
Issued by NWS

Home | Current Version | Previous Version | Text Only | Print | Product List | Glossary On
Versions: 1 2 3 4 5 6 7 8 9 10 11 12 13 14 15 16 17 18 19 20 21
000
FTUS41 KBTV 260537
TAFSLK
TAF
KSLK 260537Z 2606/2706 24010G20KT P6SM VCSH OVC025
      TEMPO 2607/2611 5SM -SHSN BR OVC015
     FM261100 24009KT P6SM BKN020 OVC030
     FM261600 23010G17KT P6SM BKN025
     FM262300 24009KT P6SM SCT018 BKN025 OVC030=

USA.gov is the U.S. government's official web portal to all federal, state and local government web resources and services.